sensor_id;sensor_type;location;lat;lon;timestamp;P1;durP1;ratioP1;P2;durP2;ratioP2
23046;SDS011;11691;51.462;6.902;2023-05-10T00:01:28;17.38;;;10.65;;
23046;SDS011;11691;51.462;6.902;2023-05-10T00:03:54;17.45;;;10.18;;
23046;SDS011;11691;51.462;6.902;2023-05-10T00:06:20;18.55;;;10.63;;
23046;SDS011;11691;51.462;6.902;2023-05-10T00:08:46;18.50;;;10.85;;
23046;SDS011;11691;51.462;6.902;2023-05-10T00:11:12;17.85;;;10.90;;
23046;SDS011;11691;51.462;6.902;2023-05-10T00:13:38;18.17;;;10.65;;
23046;SDS011;11691;51.462;6.902;2023-05-10T00:16:04;20.95;;;12.05;;
23046;SDS011;11691;51.462;6.902;2023-05-10T00:18:30;19.30;;;11.45;;
23046;SDS011;11691;51.462;6.902;2023-05-10T00:20:56;18.70;;;11.23;;
23046;SDS011;11691;51.462;6.902;2023-05-10T00:23:22;20.85;;;12.52;;
23046;SDS011;11691;51.462;6.902;2023-05-10T00:25:48;20.00;;;11.25;;
23046;SDS011;11691;51.462;6.902;2023-05-10T00:28:14;22.67;;;13.02;;
23046;SDS011;11691;51.462;6.902;2023-05-10T00:30:40;20.38;;;12.30;;
23046;SDS011;11691;51.462;6.902;2023-05-10T00:33:06;22.70;;;13.52;;
23046;SDS011;11691;51.462;6.902;2023-05-10T00:35:32;20.52;;;13.43;;
23046;SDS011;11691;51.462;6.902;2023-05-10T00:37:58;20.73;;;12.45;;
23046;SDS011;11691;51.462;6.902;2023-05-10T00:40:24;25.38;;;14.55;;
23046;SDS011;11691;51.462;6.902;2023-05-10T00:42:50;21.65;;;13.07;;
23046;SDS011;11691;51.462;6.902;2023-05-10T00:45:17;26.63;;;14.38;;
23046;SDS011;11691;51.462;6.902;2023-05-10T00:47:43;26.13;;;14.25;;
23046;SDS011;11691;51.462;6.902;2023-05-10T00:50:09;30.17;;;16.98;;
23046;SDS011;11691;51.462;6.902;2023-05-10T00:52:35;28.38;;;16.48;;
23046;SDS011;11691;51.462;6.902;2023-05-10T00:55:01;26.08;;;14.90;;
23046;SDS011;11691;51.462;6.902;2023-05-10T00:57:28;24.13;;;14.13;;
23046;SDS011;11691;51.462;6.902;2023-05-10T00:59:54;28.67;;;14.82;;
23046;SDS011;11691;51.462;6.902;2023-05-10T01:02:20;27.13;;;14.30;;
23046;SDS011;11691;51.462;6.902;2023-05-10T01:04:45;27.65;;;14.70;;
23046;SDS011;11691;51.462;6.902;2023-05-10T01:07:12;25.35;;;14.15;;
23046;SDS011;11691;51.462;6.902;2023-05-10T01:09:38;28.45;;;15.55;;
23046;SDS011;11691;51.462;6.902;2023-05-10T01:12:04;29.00;;;15.20;;
23046;SDS011;11691;51.462;6.902;2023-05-10T01:14:31;27.45;;;15.52;;
23046;SDS011;11691;51.462;6.902;2023-05-10T01:16:58;24.80;;;15.48;;
23046;SDS011;11691;51.462;6.902;2023-05-10T01:19:25;29.92;;;16.00;;
23046;SDS011;11691;51.462;6.902;2023-05-10T01:21:58;32.50;;;17.38;;
23046;SDS011;11691;51.462;6.902;2023-05-10T01:25:18;31.08;;;17.65;;
23046;SDS011;11691;51.462;6.902;2023-05-10T01:46:53;25.50;;;14.82;;
23046;SDS011;11691;51.462;6.902;2023-05-10T01:49:29;24.13;;;14.20;;
23046;SDS011;11691;51.462;6.902;2023-05-10T01:51:59;26.60;;;14.55;;
23046;SDS011;11691;51.462;6.902;2023-05-10T01:54:26;24.92;;;14.65;;
23046;SDS011;11691;51.462;6.902;2023-05-10T01:57:02;24.10;;;14.73;;
23046;SDS011;11691;51.462;6.902;2023-05-10T01:59:32;25.05;;;14.43;;
23046;SDS011;11691;51.462;6.902;2023-05-10T02:02:01;24.35;;;14.13;;
23046;SDS011;11691;51.462;6.902;2023-05-10T02:04:28;25.25;;;15.05;;
23046;SDS011;11691;51.462;6.902;2023-05-10T02:06:54;24.30;;;14.68;;
23046;SDS011;11691;51.462;6.902;2023-05-10T02:09:21;23.80;;;13.40;;
23046;SDS011;11691;51.462;6.902;2023-05-10T02:11:48;21.35;;;12.18;;
23046;SDS011;11691;51.462;6.902;2023-05-10T02:14:15;19.77;;;12.32;;
23046;SDS011;11691;51.462;6.902;2023-05-10T02:16:42;22.83;;;12.68;;
23046;SDS011;11691;51.462;6.902;2023-05-10T02:19:08;22.38;;;12.82;;
23046;SDS011;11691;51.462;6.902;2023-05-10T02:21:36;22.85;;;13.57;;
23046;SDS011;11691;51.462;6.902;2023-05-10T02:24:04;20.55;;;12.95;;
23046;SDS011;11691;51.462;6.902;2023-05-10T02:26:31;22.73;;;13.57;;
23046;SDS011;11691;51.462;6.902;2023-05-10T02:28:58;23.25;;;14.10;;
23046;SDS011;11691;51.462;6.902;2023-05-10T02:31:24;19.77;;;12.23;;
23046;SDS011;11691;51.462;6.902;2023-05-10T02:33:51;23.08;;;12.95;;
23046;SDS011;11691;51.462;6.902;2023-05-10T02:36:18;25.27;;;14.25;;
23046;SDS011;11691;51.462;6.902;2023-05-10T02:38:45;23.52;;;14.05;;
23046;SDS011;11691;51.462;6.902;2023-05-10T02:41:11;21.95;;;12.63;;
23046;SDS011;11691;51.462;6.902;2023-05-10T02:43:38;22.33;;;13.57;;
23046;SDS011;11691;51.462;6.902;2023-05-10T02:46:05;23.65;;;13.30;;
23046;SDS011;11691;51.462;6.902;2023-05-10T02:48:31;28.08;;;14.40;;
23046;SDS011;11691;51.462;6.902;2023-05-10T02:51:00;22.20;;;13.52;;
23046;SDS011;11691;51.462;6.902;2023-05-10T02:53:34;23.05;;;13.57;;
23046;SDS011;11691;51.462;6.902;2023-05-10T02:56:01;22.75;;;14.25;;
23046;SDS011;11691;51.462;6.902;2023-05-10T02:58:32;22.95;;;12.85;;
23046;SDS011;11691;51.462;6.902;2023-05-10T03:00:59;26.02;;;14.25;;
23046;SDS011;11691;51.462;6.902;2023-05-10T03:03:25;24.98;;;13.38;;
23046;SDS011;11691;51.462;6.902;2023-05-10T03:05:51;24.60;;;14.23;;
23046;SDS011;11691;51.462;6.902;2023-05-10T03:08:20;27.00;;;14.55;;
23046;SDS011;11691;51.462;6.902;2023-05-10T03:10:54;25.50;;;14.45;;
23046;SDS011;11691;51.462;6.902;2023-05-10T03:13:28;30.63;;;17.08;;
23046;SDS011;11691;51.462;6.902;2023-05-10T03:21:17;29.02;;;15.73;;
23046;SDS011;11691;51.462;6.902;2023-05-10T03:23:47;26.48;;;15.13;;
23046;SDS011;11691;51.462;6.902;2023-05-10T03:26:18;21.90;;;13.10;;
23046;SDS011;11691;51.462;6.902;2023-05-10T03:28:46;24.27;;;13.88;;
23046;SDS011;11691;51.462;6.902;2023-05-10T03:31:13;27.23;;;14.00;;
23046;SDS011;11691;51.462;6.902;2023-05-10T03:33:46;28.13;;;15.23;;
23046;SDS011;11691;51.462;6.902;2023-05-10T03:36:13;27.95;;;14.65;;
23046;SDS011;11691;51.462;6.902;2023-05-10T03:38:39;29.15;;;14.35;;
23046;SDS011;11691;51.462;6.902;2023-05-10T03:41:05;32.80;;;16.70;;
23046;SDS011;11691;51.462;6.902;2023-05-10T03:43:31;30.60;;;17.42;;
23046;SDS011;11691;51.462;6.902;2023-05-10T03:45:57;32.15;;;18.00;;
23046;SDS011;11691;51.462;6.902;2023-05-10T03:48:23;30.88;;;17.42;;
23046;SDS011;11691;51.462;6.902;2023-05-10T03:50:49;34.95;;;17.85;;
23046;SDS011;11691;51.462;6.902;2023-05-10T03:53:15;34.92;;;18.33;;
23046;SDS011;11691;51.462;6.902;2023-05-10T03:55:41;32.72;;;17.50;;
23046;SDS011;11691;51.462;6.902;2023-05-10T03:58:07;40.28;;;18.88;;
23046;SDS011;11691;51.462;6.902;2023-05-10T04:00:35;38.28;;;18.40;;
23046;SDS011;11691;51.462;6.902;2023-05-10T04:03:02;40.97;;;19.83;;
23046;SDS011;11691;51.462;6.902;2023-05-10T04:05:27;35.63;;;17.65;;
23046;SDS011;11691;51.462;6.902;2023-05-10T04:07:53;41.03;;;19.75;;
23046;SDS011;11691;51.462;6.902;2023-05-10T04:10:19;41.65;;;19.60;;
23046;SDS011;11691;51.462;6.902;2023-05-10T04:12:46;37.03;;;19.55;;
23046;SDS011;11691;51.462;6.902;2023-05-10T04:15:11;41.17;;;19.83;;
23046;SDS011;11691;51.462;6.902;2023-05-10T04:17:37;42.17;;;19.10;;
23046;SDS011;11691;51.462;6.902;2023-05-10T04:20:03;44.90;;;19.52;;
23046;SDS011;11691;51.462;6.902;2023-05-10T04:22:29;42.58;;;18.58;;
23046;SDS011;11691;51.462;6.902;2023-05-10T04:24:56;40.72;;;19.05;;
23046;SDS011;11691;51.462;6.902;2023-05-10T04:27:22;41.05;;;20.02;;
23046;SDS011;11691;51.462;6.902;2023-05-10T04:29:48;39.42;;;19.25;;
23046;SDS011;11691;51.462;6.902;2023-05-10T04:32:14;46.53;;;21.02;;
23046;SDS011;11691;51.462;6.902;2023-05-10T04:34:41;41.08;;;19.60;;
23046;SDS011;11691;51.462;6.902;2023-05-10T04:37:06;42.35;;;19.83;;
23046;SDS011;11691;51.462;6.902;2023-05-10T04:39:32;43.30;;;21.40;;
23046;SDS011;11691;51.462;6.902;2023-05-10T04:41:58;40.05;;;21.15;;
23046;SDS011;11691;51.462;6.902;2023-05-10T04:44:24;40.33;;;19.42;;
23046;SDS011;11691;51.462;6.902;2023-05-10T04:46:50;41.03;;;20.40;;
23046;SDS011;11691;51.462;6.902;2023-05-10T04:49:16;42.30;;;21.20;;
23046;SDS011;11691;51.462;6.902;2023-05-10T04:51:42;44.17;;;21.83;;
23046;SDS011;11691;51.462;6.902;2023-05-10T04:54:08;48.55;;;22.63;;
23046;SDS011;11691;51.462;6.902;2023-05-10T04:56:34;45.97;;;22.50;;
23046;SDS011;11691;51.462;6.902;2023-05-10T04:59:00;47.95;;;22.10;;
23046;SDS011;11691;51.462;6.902;2023-05-10T05:01:26;47.60;;;23.48;;
23046;SDS011;11691;51.462;6.902;2023-05-10T05:03:52;47.50;;;22.02;;
23046;SDS011;11691;51.462;6.902;2023-05-10T05:06:18;47.13;;;22.60;;
23046;SDS011;11691;51.462;6.902;2023-05-10T05:08:46;49.92;;;24.40;;
23046;SDS011;11691;51.462;6.902;2023-05-10T05:11:14;49.00;;;23.67;;
23046;SDS011;11691;51.462;6.902;2023-05-10T05:13:40;58.15;;;25.75;;
23046;SDS011;11691;51.462;6.902;2023-05-10T05:16:06;48.58;;;24.00;;
23046;SDS011;11691;51.462;6.902;2023-05-10T05:18:32;50.40;;;24.77;;
23046;SDS011;11691;51.462;6.902;2023-05-10T05:20:58;51.08;;;25.15;;
23046;SDS011;11691;51.462;6.902;2023-05-10T05:23:24;47.80;;;24.70;;
23046;SDS011;11691;51.462;6.902;2023-05-10T05:25:51;50.80;;;26.65;;
23046;SDS011;11691;51.462;6.902;2023-05-10T05:28:17;50.42;;;25.40;;
23046;SDS011;11691;51.462;6.902;2023-05-10T05:30:43;53.10;;;25.08;;
23046;SDS011;11691;51.462;6.902;2023-05-10T05:33:09;52.00;;;26.05;;
23046;SDS011;11691;51.462;6.902;2023-05-10T05:35:36;56.17;;;26.15;;
23046;SDS011;11691;51.462;6.902;2023-05-10T05:38:02;51.88;;;24.60;;
23046;SDS011;11691;51.462;6.902;2023-05-10T05:40:28;50.67;;;24.35;;
23046;SDS011;11691;51.462;6.902;2023-05-10T05:42:54;45.35;;;24.83;;
23046;SDS011;11691;51.462;6.902;2023-05-10T05:45:20;47.15;;;24.00;;
23046;SDS011;11691;51.462;6.902;2023-05-10T05:47:46;45.90;;;24.02;;
23046;SDS011;11691;51.462;6.902;2023-05-10T05:50:12;49.88;;;24.10;;
23046;SDS011;11691;51.462;6.902;2023-05-10T05:52:37;45.45;;;24.42;;
23046;SDS011;11691;51.462;6.902;2023-05-10T05:55:04;45.63;;;24.95;;
23046;SDS011;11691;51.462;6.902;2023-05-10T05:57:29;45.47;;;24.27;;
23046;SDS011;11691;51.462;6.902;2023-05-10T05:59:55;42.13;;;22.77;;
23046;SDS011;11691;51.462;6.902;2023-05-10T06:02:21;42.97;;;22.25;;
23046;SDS011;11691;51.462;6.902;2023-05-10T06:04:47;42.53;;;22.23;;
23046;SDS011;11691;51.462;6.902;2023-05-10T06:07:13;42.85;;;23.92;;
23046;SDS011;11691;51.462;6.902;2023-05-10T06:09:39;45.75;;;23.30;;
23046;SDS011;11691;51.462;6.902;2023-05-10T06:12:06;45.30;;;24.15;;
23046;SDS011;11691;51.462;6.902;2023-05-10T06:14:32;50.17;;;24.90;;
23046;SDS011;11691;51.462;6.902;2023-05-10T06:16:58;55.88;;;26.10;;
23046;SDS011;11691;51.462;6.902;2023-05-10T06:19:25;54.53;;;25.90;;
23046;SDS011;11691;51.462;6.902;2023-05-10T06:21:51;53.60;;;24.92;;
23046;SDS011;11691;51.462;6.902;2023-05-10T06:24:17;54.65;;;27.20;;
23046;SDS011;11691;51.462;6.902;2023-05-10T06:26:42;54.25;;;26.42;;
23046;SDS011;11691;51.462;6.902;2023-05-10T06:29:08;58.08;;;26.30;;
23046;SDS011;11691;51.462;6.902;2023-05-10T06:31:34;57.40;;;26.95;;
23046;SDS011;11691;51.462;6.902;2023-05-10T06:34:00;55.45;;;27.10;;
23046;SDS011;11691;51.462;6.902;2023-05-10T06:36:26;58.38;;;26.25;;
23046;SDS011;11691;51.462;6.902;2023-05-10T06:38:52;58.88;;;27.40;;
23046;SDS011;11691;51.462;6.902;2023-05-10T06:41:18;47.47;;;24.95;;
23046;SDS011;11691;51.462;6.902;2023-05-10T06:43:45;53.92;;;25.10;;
23046;SDS011;11691;51.462;6.902;2023-05-10T06:46:11;53.13;;;25.98;;
23046;SDS011;11691;51.462;6.902;2023-05-10T06:48:37;49.60;;;25.48;;
23046;SDS011;11691;51.462;6.902;2023-05-10T06:51:03;49.55;;;24.83;;
23046;SDS011;11691;51.462;6.902;2023-05-10T06:53:29;50.67;;;25.20;;
23046;SDS011;11691;51.462;6.902;2023-05-10T06:55:55;52.63;;;25.35;;
23046;SDS011;11691;51.462;6.902;2023-05-10T06:58:21;52.78;;;25.85;;
23046;SDS011;11691;51.462;6.902;2023-05-10T07:00:47;52.50;;;25.85;;
23046;SDS011;11691;51.462;6.902;2023-05-10T07:03:13;56.22;;;27.25;;
23046;SDS011;11691;51.462;6.902;2023-05-10T07:05:39;60.38;;;26.33;;
23046;SDS011;11691;51.462;6.902;2023-05-10T07:08:05;47.72;;;24.25;;
23046;SDS011;11691;51.462;6.902;2023-05-10T07:10:32;48.83;;;24.02;;
23046;SDS011;11691;51.462;6.902;2023-05-10T07:12:58;47.60;;;23.02;;
23046;SDS011;11691;51.462;6.902;2023-05-10T07:15:24;48.55;;;23.35;;
23046;SDS011;11691;51.462;6.902;2023-05-10T07:17:49;51.30;;;24.23;;
23046;SDS011;11691;51.462;6.902;2023-05-10T07:20:16;50.72;;;23.50;;
23046;SDS011;11691;51.462;6.902;2023-05-10T07:22:42;46.70;;;22.88;;
23046;SDS011;11691;51.462;6.902;2023-05-10T07:25:08;51.00;;;23.75;;
23046;SDS011;11691;51.462;6.902;2023-05-10T07:27:34;47.25;;;23.77;;
23046;SDS011;11691;51.462;6.902;2023-05-10T07:30:00;49.30;;;24.08;;
23046;SDS011;11691;51.462;6.902;2023-05-10T07:32:27;46.08;;;23.77;;
23046;SDS011;11691;51.462;6.902;2023-05-10T07:34:53;48.88;;;24.52;;
23046;SDS011;11691;51.462;6.902;2023-05-10T07:37:19;42.75;;;22.98;;
23046;SDS011;11691;51.462;6.902;2023-05-10T07:39:45;53.88;;;24.60;;
23046;SDS011;11691;51.462;6.902;2023-05-10T07:42:11;47.13;;;23.20;;
23046;SDS011;11691;51.462;6.902;2023-05-10T07:44:37;51.28;;;24.35;;
23046;SDS011;11691;51.462;6.902;2023-05-10T07:47:03;48.70;;;23.45;;
23046;SDS011;11691;51.462;6.902;2023-05-10T07:49:29;47.47;;;23.80;;
23046;SDS011;11691;51.462;6.902;2023-05-10T07:51:55;43.17;;;21.23;;
23046;SDS011;11691;51.462;6.902;2023-05-10T07:54:21;46.70;;;19.98;;
23046;SDS011;11691;51.462;6.902;2023-05-10T07:56:47;44.72;;;20.23;;
23046;SDS011;11691;51.462;6.902;2023-05-10T07:59:17;38.75;;;19.95;;
23046;SDS011;11691;51.462;6.902;2023-05-10T08:01:43;40.25;;;20.27;;
23046;SDS011;11691;51.462;6.902;2023-05-10T08:04:09;42.50;;;20.63;;
23046;SDS011;11691;51.462;6.902;2023-05-10T08:06:36;48.25;;;21.58;;
23046;SDS011;11691;51.462;6.902;2023-05-10T08:09:02;49.78;;;21.55;;
23046;SDS011;11691;51.462;6.902;2023-05-10T08:11:28;44.90;;;20.20;;
23046;SDS011;11691;51.462;6.902;2023-05-10T08:13:54;40.72;;;20.15;;
23046;SDS011;11691;51.462;6.902;2023-05-10T08:16:20;36.92;;;18.45;;
23046;SDS011;11691;51.462;6.902;2023-05-10T08:18:46;33.45;;;17.58;;
23046;SDS011;11691;51.462;6.902;2023-05-10T08:21:14;35.15;;;17.75;;
23046;SDS011;11691;51.462;6.902;2023-05-10T08:23:40;31.55;;;17.05;;
23046;SDS011;11691;51.462;6.902;2023-05-10T08:26:08;34.67;;;16.98;;
23046;SDS011;11691;51.462;6.902;2023-05-10T08:28:34;36.50;;;17.48;;
23046;SDS011;11691;51.462;6.902;2023-05-10T08:31:00;37.03;;;17.52;;
23046;SDS011;11691;51.462;6.902;2023-05-10T08:33:26;32.17;;;18.38;;
23046;SDS011;11691;51.462;6.902;2023-05-10T08:35:52;31.98;;;17.77;;
23046;SDS011;11691;51.462;6.902;2023-05-10T08:38:18;34.80;;;19.02;;
23046;SDS011;11691;51.462;6.902;2023-05-10T08:40:44;38.65;;;19.20;;
23046;SDS011;11691;51.462;6.902;2023-05-10T08:43:11;42.88;;;19.88;;
23046;SDS011;11691;51.462;6.902;2023-05-10T08:45:40;42.08;;;19.13;;
23046;SDS011;11691;51.462;6.902;2023-05-10T08:48:08;39.70;;;19.20;;
23046;SDS011;11691;51.462;6.902;2023-05-10T08:50:35;38.90;;;18.67;;
23046;SDS011;11691;51.462;6.902;2023-05-10T08:53:03;35.83;;;18.58;;
23046;SDS011;11691;51.462;6.902;2023-05-10T08:55:29;37.20;;;19.63;;
23046;SDS011;11691;51.462;6.902;2023-05-10T08:57:56;39.17;;;18.52;;
23046;SDS011;11691;51.462;6.902;2023-05-10T09:00:22;39.10;;;20.33;;
23046;SDS011;11691;51.462;6.902;2023-05-10T09:02:49;37.40;;;19.58;;
23046;SDS011;11691;51.462;6.902;2023-05-10T09:05:15;39.45;;;19.25;;
23046;SDS011;11691;51.462;6.902;2023-05-10T09:07:42;44.15;;;20.05;;
23046;SDS011;11691;51.462;6.902;2023-05-10T09:10:08;38.55;;;19.50;;
23046;SDS011;11691;51.462;6.902;2023-05-10T09:12:35;38.08;;;19.75;;
23046;SDS011;11691;51.462;6.902;2023-05-10T09:15:02;39.53;;;19.20;;
23046;SDS011;11691;51.462;6.902;2023-05-10T09:17:30;32.47;;;18.60;;
23046;SDS011;11691;51.462;6.902;2023-05-10T09:20:01;34.63;;;18.95;;
23046;SDS011;11691;51.462;6.902;2023-05-10T09:22:28;34.88;;;18.02;;
23046;SDS011;11691;51.462;6.902;2023-05-10T09:25:05;34.15;;;18.85;;
23046;SDS011;11691;51.462;6.902;2023-05-10T09:27:31;33.40;;;18.02;;
23046;SDS011;11691;51.462;6.902;2023-05-10T09:29:57;30.55;;;17.83;;
23046;SDS011;11691;51.462;6.902;2023-05-10T09:32:42;34.20;;;17.83;;
23046;SDS011;11691;51.462;6.902;2023-05-10T09:35:16;30.10;;;17.13;;
23046;SDS011;11691;51.462;6.902;2023-05-10T09:37:43;33.85;;;18.27;;
23046;SDS011;11691;51.462;6.902;2023-05-10T09:40:11;29.27;;;16.88;;
23046;SDS011;11691;51.462;6.902;2023-05-10T09:42:39;31.23;;;17.23;;
23046;SDS011;11691;51.462;6.902;2023-05-10T09:45:06;24.13;;;14.52;;
23046;SDS011;11691;51.462;6.902;2023-05-10T09:47:33;27.73;;;15.27;;
23046;SDS011;11691;51.462;6.902;2023-05-10T09:49:59;28.13;;;15.65;;
23046;SDS011;11691;51.462;6.902;2023-05-10T09:52:29;32.85;;;16.90;;
23046;SDS011;11691;51.462;6.902;2023-05-10T09:54:55;32.67;;;17.50;;
23046;SDS011;11691;51.462;6.902;2023-05-10T09:57:22;25.42;;;15.27;;
23046;SDS011;11691;51.462;6.902;2023-05-10T09:59:48;23.98;;;13.70;;
23046;SDS011;11691;51.462;6.902;2023-05-10T10:02:15;26.67;;;14.50;;
23046;SDS011;11691;51.462;6.902;2023-05-10T10:04:42;27.95;;;16.52;;
23046;SDS011;11691;51.462;6.902;2023-05-10T10:07:08;25.27;;;15.52;;
23046;SDS011;11691;51.462;6.902;2023-05-10T10:09:34;23.92;;;15.07;;
23046;SDS011;11691;51.462;6.902;2023-05-10T10:12:01;24.73;;;14.50;;
23046;SDS011;11691;51.462;6.902;2023-05-10T10:14:27;26.00;;;14.70;;
23046;SDS011;11691;51.462;6.902;2023-05-10T10:16:53;25.65;;;14.77;;
23046;SDS011;11691;51.462;6.902;2023-05-10T10:19:19;28.05;;;14.18;;
23046;SDS011;11691;51.462;6.902;2023-05-10T10:21:46;26.20;;;15.43;;
23046;SDS011;11691;51.462;6.902;2023-05-10T10:24:12;28.77;;;16.38;;
23046;SDS011;11691;51.462;6.902;2023-05-10T10:26:38;29.73;;;15.65;;
23046;SDS011;11691;51.462;6.902;2023-05-10T10:29:17;30.50;;;17.23;;
23046;SDS011;11691;51.462;6.902;2023-05-10T10:31:54;32.08;;;15.15;;
23046;SDS011;11691;51.462;6.902;2023-05-10T10:36:47;22.40;;;13.57;;
23046;SDS011;11691;51.462;6.902;2023-05-10T10:39:13;24.77;;;13.45;;
23046;SDS011;11691;51.462;6.902;2023-05-10T10:41:40;27.08;;;14.27;;
23046;SDS011;11691;51.462;6.902;2023-05-10T10:44:33;23.17;;;12.77;;
23046;SDS011;11691;51.462;6.902;2023-05-10T10:49:26;25.27;;;13.43;;
23046;SDS011;11691;51.462;6.902;2023-05-10T10:54:37;21.85;;;13.82;;
23046;SDS011;11691;51.462;6.902;2023-05-10T10:57:21;23.20;;;12.63;;
23046;SDS011;11691;51.462;6.902;2023-05-10T10:59:47;25.23;;;13.95;;
23046;SDS011;11691;51.462;6.902;2023-05-10T11:04:58;25.83;;;13.13;;
23046;SDS011;11691;51.462;6.902;2023-05-10T11:07:24;26.17;;;13.75;;
23046;SDS011;11691;51.462;6.902;2023-05-10T11:09:50;25.02;;;13.77;;
23046;SDS011;11691;51.462;6.902;2023-05-10T11:12:16;25.73;;;14.35;;
23046;SDS011;11691;51.462;6.902;2023-05-10T11:14:42;20.83;;;13.98;;
23046;SDS011;11691;51.462;6.902;2023-05-10T11:20:09;22.75;;;14.23;;
23046;SDS011;11691;51.462;6.902;2023-05-10T11:25:17;23.27;;;14.68;;
23046;SDS011;11691;51.462;6.902;2023-05-10T11:27:43;24.10;;;14.25;;
23046;SDS011;11691;51.462;6.902;2023-05-10T11:30:10;23.05;;;14.90;;
23046;SDS011;11691;51.462;6.902;2023-05-10T11:32:39;23.98;;;14.45;;
23046;SDS011;11691;51.462;6.902;2023-05-10T11:35:08;24.88;;;14.05;;
23046;SDS011;11691;51.462;6.902;2023-05-10T11:37:35;23.17;;;14.50;;
23046;SDS011;11691;51.462;6.902;2023-05-10T11:40:01;21.50;;;13.02;;
23046;SDS011;11691;51.462;6.902;2023-05-10T11:42:28;20.33;;;13.18;;
23046;SDS011;11691;51.462;6.902;2023-05-10T11:44:54;17.38;;;11.82;;
23046;SDS011;11691;51.462;6.902;2023-05-10T11:47:20;19.45;;;12.15;;
23046;SDS011;11691;51.462;6.902;2023-05-10T11:49:47;19.38;;;12.82;;
23046;SDS011;11691;51.462;6.902;2023-05-10T11:52:13;17.92;;;12.05;;
23046;SDS011;11691;51.462;6.902;2023-05-10T11:54:50;17.95;;;11.95;;
23046;SDS011;11691;51.462;6.902;2023-05-10T11:57:18;19.20;;;11.52;;
23046;SDS011;11691;51.462;6.902;2023-05-10T11:59:45;19.10;;;12.98;;
23046;SDS011;11691;51.462;6.902;2023-05-10T12:02:11;19.05;;;12.07;;
23046;SDS011;11691;51.462;6.902;2023-05-10T12:04:37;18.13;;;11.45;;
23046;SDS011;11691;51.462;6.902;2023-05-10T12:07:04;13.93;;;10.38;;
23046;SDS011;11691;51.462;6.902;2023-05-10T12:09:30;14.20;;;10.07;;
23046;SDS011;11691;51.462;6.902;2023-05-10T12:11:56;14.48;;;9.52;;
23046;SDS011;11691;51.462;6.902;2023-05-10T12:14:22;14.20;;;8.93;;
23046;SDS011;11691;51.462;6.902;2023-05-10T12:16:49;11.63;;;8.32;;
23046;SDS011;11691;51.462;6.902;2023-05-10T12:19:19;9.93;;;7.43;;
23046;SDS011;11691;51.462;6.902;2023-05-10T12:21:46;9.98;;;6.95;;
23046;SDS011;11691;51.462;6.902;2023-05-10T12:24:12;10.32;;;6.63;;
23046;SDS011;11691;51.462;6.902;2023-05-10T12:26:41;10.63;;;6.50;;
23046;SDS011;11691;51.462;6.902;2023-05-10T12:29:17;10.80;;;6.90;;
23046;SDS011;11691;51.462;6.902;2023-05-10T12:34:34;12.70;;;7.10;;
23046;SDS011;11691;51.462;6.902;2023-05-10T12:37:04;9.52;;;6.60;;
23046;SDS011;11691;51.462;6.902;2023-05-10T12:39:42;9.65;;;6.60;;
23046;SDS011;11691;51.462;6.902;2023-05-10T12:42:09;10.20;;;6.18;;
23046;SDS011;11691;51.462;6.902;2023-05-10T12:44:35;9.88;;;6.20;;
23046;SDS011;11691;51.462;6.902;2023-05-10T12:47:01;6.95;;;5.28;;
23046;SDS011;11691;51.462;6.902;2023-05-10T12:49:27;8.35;;;5.72;;
23046;SDS011;11691;51.462;6.902;2023-05-10T12:51:53;8.52;;;5.07;;
23046;SDS011;11691;51.462;6.902;2023-05-10T12:54:19;6.50;;;4.70;;
23046;SDS011;11691;51.462;6.902;2023-05-10T12:56:45;5.93;;;4.80;;
23046;SDS011;11691;51.462;6.902;2023-05-10T12:59:11;7.75;;;4.80;;
23046;SDS011;11691;51.462;6.902;2023-05-10T13:01:37;7.85;;;4.80;;
23046;SDS011;11691;51.462;6.902;2023-05-10T13:04:03;7.30;;;4.57;;
23046;SDS011;11691;51.462;6.902;2023-05-10T13:06:29;9.13;;;4.85;;
23046;SDS011;11691;51.462;6.902;2023-05-10T13:08:55;7.45;;;4.68;;
23046;SDS011;11691;51.462;6.902;2023-05-10T13:11:22;7.07;;;4.35;;
23046;SDS011;11691;51.462;6.902;2023-05-10T13:13:48;5.03;;;4.22;;
23046;SDS011;11691;51.462;6.902;2023-05-10T13:16:14;7.70;;;4.43;;
23046;SDS011;11691;51.462;6.902;2023-05-10T13:18:40;6.22;;;4.30;;
23046;SDS011;11691;51.462;6.902;2023-05-10T13:21:06;4.85;;;3.88;;
23046;SDS011;11691;51.462;6.902;2023-05-10T13:23:32;8.40;;;4.45;;
23046;SDS011;11691;51.462;6.902;2023-05-10T13:25:58;7.47;;;4.28;;
23046;SDS011;11691;51.462;6.902;2023-05-10T13:28:24;6.38;;;3.58;;
23046;SDS011;11691;51.462;6.902;2023-05-10T13:30:51;6.03;;;4.00;;
23046;SDS011;11691;51.462;6.902;2023-05-10T13:33:17;7.63;;;4.35;;
23046;SDS011;11691;51.462;6.902;2023-05-10T13:35:43;7.78;;;3.78;;
23046;SDS011;11691;51.462;6.902;2023-05-10T13:38:10;5.45;;;3.42;;
23046;SDS011;11691;51.462;6.902;2023-05-10T13:40:36;4.95;;;3.70;;
23046;SDS011;11691;51.462;6.902;2023-05-10T13:43:02;5.68;;;3.17;;
23046;SDS011;11691;51.462;6.902;2023-05-10T13:45:28;6.85;;;3.40;;
23046;SDS011;11691;51.462;6.902;2023-05-10T13:47:54;3.55;;;3.25;;
23046;SDS011;11691;51.462;6.902;2023-05-10T13:50:20;9.35;;;2.97;;
23046;SDS011;11691;51.462;6.902;2023-05-10T13:52:46;5.35;;;3.60;;
23046;SDS011;11691;51.462;6.902;2023-05-10T13:55:12;5.15;;;3.50;;
23046;SDS011;11691;51.462;6.902;2023-05-10T13:57:38;7.82;;;3.38;;
23046;SDS011;11691;51.462;6.902;2023-05-10T14:00:04;7.18;;;3.67;;
23046;SDS011;11691;51.462;6.902;2023-05-10T14:02:30;6.47;;;4.20;;
23046;SDS011;11691;51.462;6.902;2023-05-10T14:04:56;5.72;;;4.47;;
23046;SDS011;11691;51.462;6.902;2023-05-10T14:07:22;7.68;;;5.03;;
23046;SDS011;11691;51.462;6.902;2023-05-10T14:09:48;6.30;;;4.82;;
23046;SDS011;11691;51.462;6.902;2023-05-10T14:12:15;7.78;;;3.90;;
23046;SDS011;11691;51.462;6.902;2023-05-10T14:14:41;8.02;;;5.15;;
23046;SDS011;11691;51.462;6.902;2023-05-10T14:17:07;6.30;;;4.13;;
23046;SDS011;11691;51.462;6.902;2023-05-10T14:19:33;9.07;;;5.95;;
23046;SDS011;11691;51.462;6.902;2023-05-10T14:21:59;6.88;;;5.47;;
23046;SDS011;11691;51.462;6.902;2023-05-10T14:24:25;9.40;;;5.78;;
23046;SDS011;11691;51.462;6.902;2023-05-10T14:26:51;10.48;;;6.32;;
23046;SDS011;11691;51.462;6.902;2023-05-10T14:29:20;7.75;;;6.30;;
23046;SDS011;11691;51.462;6.902;2023-05-10T14:31:47;8.45;;;6.10;;
23046;SDS011;11691;51.462;6.902;2023-05-10T14:34:13;7.60;;;6.00;;
23046;SDS011;11691;51.462;6.902;2023-05-10T14:36:39;8.27;;;4.85;;
23046;SDS011;11691;51.462;6.902;2023-05-10T14:39:05;8.32;;;4.82;;
23046;SDS011;11691;51.462;6.902;2023-05-10T14:41:31;6.72;;;5.30;;
23046;SDS011;11691;51.462;6.902;2023-05-10T14:43:57;8.80;;;5.85;;
23046;SDS011;11691;51.462;6.902;2023-05-10T14:46:23;8.52;;;5.80;;
23046;SDS011;11691;51.462;6.902;2023-05-10T14:48:49;7.97;;;5.82;;
23046;SDS011;11691;51.462;6.902;2023-05-10T14:51:15;7.97;;;5.93;;
23046;SDS011;11691;51.462;6.902;2023-05-10T14:53:42;10.07;;;5.60;;
23046;SDS011;11691;51.462;6.902;2023-05-10T14:56:08;9.90;;;6.28;;
23046;SDS011;11691;51.462;6.902;2023-05-10T14:58:34;7.47;;;5.53;;
23046;SDS011;11691;51.462;6.902;2023-05-10T15:01:00;8.07;;;5.38;;
23046;SDS011;11691;51.462;6.902;2023-05-10T15:03:26;8.57;;;5.82;;
23046;SDS011;11691;51.462;6.902;2023-05-10T15:05:52;9.35;;;6.47;;
23046;SDS011;11691;51.462;6.902;2023-05-10T15:08:18;10.57;;;6.50;;